sensor_id;sensor_type;location;lat;lon;timestamp;P1;durP1;ratioP1;P2;durP2;ratioP2
42726;SDS011;28372;56.832;60.658;2022-08-19T00:01:53;3.00;;;1.70;;
42726;SDS011;28372;56.832;60.658;2022-08-19T00:04:26;4.75;;;2.08;;
42726;SDS011;28372;56.832;60.658;2022-08-19T00:06:57;4.82;;;1.80;;
42726;SDS011;28372;56.832;60.658;2022-08-19T00:09:25;3.58;;;2.05;;
42726;SDS011;28372;56.832;60.658;2022-08-19T00:11:53;5.68;;;1.80;;
42726;SDS011;28372;56.832;60.658;2022-08-19T00:14:25;3.30;;;1.65;;
42726;SDS011;28372;56.832;60.658;2022-08-19T00:16:54;3.45;;;1.60;;
42726;SDS011;28372;56.832;60.658;2022-08-19T00:19:22;4.05;;;1.70;;
42726;SDS011;28372;56.832;60.658;2022-08-19T00:21:51;4.53;;;1.58;;
42726;SDS011;28372;56.832;60.658;2022-08-19T00:24:19;3.97;;;1.80;;
42726;SDS011;28372;56.832;60.658;2022-08-19T00:26:47;3.30;;;1.48;;
42726;SDS011;28372;56.832;60.658;2022-08-19T00:29:15;3.60;;;1.48;;
42726;SDS011;28372;56.832;60.658;2022-08-19T00:31:44;3.38;;;1.60;;
42726;SDS011;28372;56.832;60.658;2022-08-19T00:34:14;2.72;;;1.42;;
42726;SDS011;28372;56.832;60.658;2022-08-19T00:36:42;3.67;;;1.50;;
42726;SDS011;28372;56.832;60.658;2022-08-19T00:39:09;3.28;;;1.50;;
42726;SDS011;28372;56.832;60.658;2022-08-19T00:41:38;3.63;;;1.65;;
42726;SDS011;28372;56.832;60.658;2022-08-19T00:44:08;4.55;;;1.70;;
42726;SDS011;28372;56.832;60.658;2022-08-19T00:46:41;5.22;;;1.95;;
42726;SDS011;28372;56.832;60.658;2022-08-19T00:49:25;4.50;;;1.60;;
42726;SDS011;28372;56.832;60.658;2022-08-19T00:52:02;3.38;;;1.50;;
42726;SDS011;28372;56.832;60.658;2022-08-19T00:54:40;3.63;;;1.50;;
42726;SDS011;28372;56.832;60.658;2022-08-19T00:57:09;4.03;;;1.70;;
42726;SDS011;28372;56.832;60.658;2022-08-19T00:59:42;3.97;;;1.67;;
42726;SDS011;28372;56.832;60.658;2022-08-19T01:02:30;2.97;;;1.58;;
42726;SDS011;28372;56.832;60.658;2022-08-19T01:05:00;3.25;;;1.58;;
42726;SDS011;28372;56.832;60.658;2022-08-19T01:07:32;5.07;;;1.63;;
42726;SDS011;28372;56.832;60.658;2022-08-19T01:10:05;3.60;;;1.98;;
42726;SDS011;28372;56.832;60.658;2022-08-19T01:12:36;5.85;;;1.80;;
42726;SDS011;28372;56.832;60.658;2022-08-19T01:15:08;2.90;;;1.40;;
42726;SDS011;28372;56.832;60.658;2022-08-19T01:17:38;3.88;;;1.65;;
42726;SDS011;28372;56.832;60.658;2022-08-19T01:20:13;3.35;;;1.60;;
42726;SDS011;28372;56.832;60.658;2022-08-19T01:22:50;3.05;;;1.70;;
42726;SDS011;28372;56.832;60.658;2022-08-19T01:25:21;4.05;;;1.60;;
42726;SDS011;28372;56.832;60.658;2022-08-19T01:27:54;6.20;;;1.85;;
42726;SDS011;28372;56.832;60.658;2022-08-19T01:30:31;4.10;;;1.70;;
42726;SDS011;28372;56.832;60.658;2022-08-19T01:33:01;4.35;;;1.60;;
42726;SDS011;28372;56.832;60.658;2022-08-19T01:35:31;3.65;;;1.52;;
42726;SDS011;28372;56.832;60.658;2022-08-19T01:38:01;3.63;;;1.70;;
42726;SDS011;28372;56.832;60.658;2022-08-19T01:40:35;3.72;;;1.70;;
42726;SDS011;28372;56.832;60.658;2022-08-19T01:43:05;4.88;;;2.10;;
42726;SDS011;28372;56.832;60.658;2022-08-19T01:45:33;3.88;;;2.13;;
42726;SDS011;28372;56.832;60.658;2022-08-19T01:48:02;3.83;;;2.03;;
42726;SDS011;28372;56.832;60.658;2022-08-19T01:50:31;3.72;;;1.90;;
42726;SDS011;28372;56.832;60.658;2022-08-19T01:53:00;3.85;;;2.08;;
42726;SDS011;28372;56.832;60.658;2022-08-19T01:55:34;3.60;;;2.10;;
42726;SDS011;28372;56.832;60.658;2022-08-19T02:00:38;5.45;;;2.40;;
42726;SDS011;28372;56.832;60.658;2022-08-19T02:03:06;4.18;;;2.10;;
42726;SDS011;28372;56.832;60.658;2022-08-19T02:05:33;4.47;;;2.45;;
42726;SDS011;28372;56.832;60.658;2022-08-19T02:08:01;4.70;;;2.42;;
42726;SDS011;28372;56.832;60.658;2022-08-19T02:10:28;4.85;;;2.33;;
42726;SDS011;28372;56.832;60.658;2022-08-19T02:12:56;4.72;;;2.58;;
42726;SDS011;28372;56.832;60.658;2022-08-19T02:15:23;5.53;;;2.78;;
42726;SDS011;28372;56.832;60.658;2022-08-19T02:17:52;5.40;;;2.90;;
42726;SDS011;28372;56.832;60.658;2022-08-19T02:20:20;6.70;;;3.30;;
42726;SDS011;28372;56.832;60.658;2022-08-19T02:22:47;6.55;;;3.28;;
42726;SDS011;28372;56.832;60.658;2022-08-19T02:25:15;8.15;;;3.70;;
42726;SDS011;28372;56.832;60.658;2022-08-19T02:27:43;6.93;;;3.05;;
42726;SDS011;28372;56.832;60.658;2022-08-19T02:30:12;5.57;;;2.60;;
42726;SDS011;28372;56.832;60.658;2022-08-19T02:32:42;5.47;;;2.35;;
42726;SDS011;28372;56.832;60.658;2022-08-19T02:35:11;4.28;;;1.98;;
42726;SDS011;28372;56.832;60.658;2022-08-19T02:37:41;4.45;;;1.90;;
42726;SDS011;28372;56.832;60.658;2022-08-19T02:40:28;4.32;;;2.10;;
42726;SDS011;28372;56.832;60.658;2022-08-19T02:43:04;4.88;;;1.95;;
42726;SDS011;28372;56.832;60.658;2022-08-19T02:48:07;5.47;;;2.10;;
42726;SDS011;28372;56.832;60.658;2022-08-19T02:50:48;4.18;;;1.90;;
42726;SDS011;28372;56.832;60.658;2022-08-19T02:53:23;4.50;;;2.30;;
42726;SDS011;28372;56.832;60.658;2022-08-19T02:55:53;5.47;;;2.08;;
42726;SDS011;28372;56.832;60.658;2022-08-19T02:58:21;4.63;;;2.30;;
42726;SDS011;28372;56.832;60.658;2022-08-19T03:00:52;4.57;;;2.10;;
42726;SDS011;28372;56.832;60.658;2022-08-19T03:03:21;5.05;;;2.33;;
42726;SDS011;28372;56.832;60.658;2022-08-19T03:05:49;4.05;;;2.35;;
42726;SDS011;28372;56.832;60.658;2022-08-19T03:08:23;6.45;;;2.30;;
42726;SDS011;28372;56.832;60.658;2022-08-19T03:10:52;5.00;;;2.40;;
42726;SDS011;28372;56.832;60.658;2022-08-19T03:13:20;5.88;;;2.42;;
42726;SDS011;28372;56.832;60.658;2022-08-19T03:15:48;4.72;;;2.10;;
42726;SDS011;28372;56.832;60.658;2022-08-19T03:18:16;6.68;;;2.53;;
42726;SDS011;28372;56.832;60.658;2022-08-19T03:20:44;5.78;;;2.05;;
42726;SDS011;28372;56.832;60.658;2022-08-19T03:23:15;5.13;;;2.50;;
42726;SDS011;28372;56.832;60.658;2022-08-19T03:25:45;5.68;;;2.17;;
42726;SDS011;28372;56.832;60.658;2022-08-19T03:28:36;4.05;;;1.73;;
42726;SDS011;28372;56.832;60.658;2022-08-19T03:31:05;8.50;;;2.35;;
42726;SDS011;28372;56.832;60.658;2022-08-19T03:33:55;6.20;;;2.35;;
42726;SDS011;28372;56.832;60.658;2022-08-19T03:36:23;7.57;;;2.47;;
42726;SDS011;28372;56.832;60.658;2022-08-19T03:38:56;5.90;;;2.20;;
42726;SDS011;28372;56.832;60.658;2022-08-19T03:41:47;5.15;;;1.98;;
42726;SDS011;28372;56.832;60.658;2022-08-19T03:44:15;4.68;;;1.80;;
42726;SDS011;28372;56.832;60.658;2022-08-19T03:46:48;4.70;;;1.90;;
42726;SDS011;28372;56.832;60.658;2022-08-19T03:49:19;4.63;;;1.98;;
42726;SDS011;28372;56.832;60.658;2022-08-19T03:51:54;3.17;;;1.63;;
42726;SDS011;28372;56.832;60.658;2022-08-19T03:54:24;3.40;;;1.70;;
42726;SDS011;28372;56.832;60.658;2022-08-19T03:56:53;4.82;;;1.70;;
42726;SDS011;28372;56.832;60.658;2022-08-19T03:59:23;4.65;;;1.88;;
42726;SDS011;28372;56.832;60.658;2022-08-19T04:01:58;5.10;;;1.90;;
42726;SDS011;28372;56.832;60.658;2022-08-19T04:04:28;5.70;;;2.05;;
42726;SDS011;28372;56.832;60.658;2022-08-19T04:06:57;3.58;;;1.80;;
42726;SDS011;28372;56.832;60.658;2022-08-19T04:09:25;4.90;;;2.08;;
42726;SDS011;28372;56.832;60.658;2022-08-19T04:11:53;5.43;;;2.03;;
42726;SDS011;28372;56.832;60.658;2022-08-19T04:14:25;5.47;;;2.10;;
42726;SDS011;28372;56.832;60.658;2022-08-19T04:16:58;4.68;;;1.85;;
42726;SDS011;28372;56.832;60.658;2022-08-19T04:19:28;3.35;;;1.88;;
42726;SDS011;28372;56.832;60.658;2022-08-19T04:21:56;4.95;;;1.98;;
42726;SDS011;28372;56.832;60.658;2022-08-19T04:24:25;5.53;;;2.00;;
42726;SDS011;28372;56.832;60.658;2022-08-19T04:26:53;5.63;;;1.90;;
42726;SDS011;28372;56.832;60.658;2022-08-19T04:29:21;4.85;;;1.80;;
42726;SDS011;28372;56.832;60.658;2022-08-19T04:31:52;5.97;;;2.10;;
42726;SDS011;28372;56.832;60.658;2022-08-19T04:34:23;6.65;;;1.80;;
42726;SDS011;28372;56.832;60.658;2022-08-19T04:36:52;3.97;;;1.70;;
42726;SDS011;28372;56.832;60.658;2022-08-19T04:39:22;4.65;;;1.77;;
42726;SDS011;28372;56.832;60.658;2022-08-19T04:42:16;5.43;;;1.60;;
42726;SDS011;28372;56.832;60.658;2022-08-19T04:45:04;5.70;;;1.70;;
42726;SDS011;28372;56.832;60.658;2022-08-19T04:47:38;3.47;;;1.83;;
42726;SDS011;28372;56.832;60.658;2022-08-19T04:50:25;4.93;;;1.60;;
42726;SDS011;28372;56.832;60.658;2022-08-19T04:52:53;4.65;;;1.80;;
42726;SDS011;28372;56.832;60.658;2022-08-19T04:55:23;3.28;;;1.88;;
42726;SDS011;28372;56.832;60.658;2022-08-19T04:57:54;4.00;;;1.88;;
42726;SDS011;28372;56.832;60.658;2022-08-19T05:00:22;3.45;;;2.03;;
42726;SDS011;28372;56.832;60.658;2022-08-19T05:02:50;3.92;;;2.20;;
42726;SDS011;28372;56.832;60.658;2022-08-19T05:05:18;3.83;;;2.33;;
42726;SDS011;28372;56.832;60.658;2022-08-19T05:07:46;4.07;;;2.00;;
42726;SDS011;28372;56.832;60.658;2022-08-19T05:10:14;5.70;;;2.05;;
42726;SDS011;28372;56.832;60.658;2022-08-19T05:12:41;3.25;;;1.83;;
42726;SDS011;28372;56.832;60.658;2022-08-19T05:15:09;5.40;;;2.10;;
42726;SDS011;28372;56.832;60.658;2022-08-19T05:17:37;3.22;;;2.03;;
42726;SDS011;28372;56.832;60.658;2022-08-19T05:20:05;4.38;;;2.20;;
42726;SDS011;28372;56.832;60.658;2022-08-19T05:22:53;4.82;;;2.20;;
42726;SDS011;28372;56.832;60.658;2022-08-19T05:25:21;4.32;;;2.22;;
42726;SDS011;28372;56.832;60.658;2022-08-19T05:27:49;8.43;;;2.30;;
42726;SDS011;28372;56.832;60.658;2022-08-19T05:30:16;3.97;;;2.40;;
42726;SDS011;28372;56.832;60.658;2022-08-19T05:32:59;3.92;;;2.13;;
42726;SDS011;28372;56.832;60.658;2022-08-19T05:35:27;4.80;;;2.42;;
42726;SDS011;28372;56.832;60.658;2022-08-19T05:38:00;4.05;;;2.53;;
42726;SDS011;28372;56.832;60.658;2022-08-19T05:40:28;6.20;;;2.42;;
42726;SDS011;28372;56.832;60.658;2022-08-19T05:42:55;3.72;;;2.03;;
42726;SDS011;28372;56.832;60.658;2022-08-19T05:45:22;5.50;;;2.88;;
42726;SDS011;28372;56.832;60.658;2022-08-19T05:47:51;6.00;;;2.95;;
42726;SDS011;28372;56.832;60.658;2022-08-19T05:50:19;4.65;;;3.10;;
42726;SDS011;28372;56.832;60.658;2022-08-19T05:52:46;5.80;;;2.90;;
42726;SDS011;28372;56.832;60.658;2022-08-19T05:55:16;6.43;;;2.53;;
42726;SDS011;28372;56.832;60.658;2022-08-19T05:57:44;5.30;;;2.92;;
42726;SDS011;28372;56.832;60.658;2022-08-19T06:00:12;6.32;;;2.92;;
42726;SDS011;28372;56.832;60.658;2022-08-19T06:02:40;5.75;;;2.70;;
42726;SDS011;28372;56.832;60.658;2022-08-19T06:05:08;6.53;;;2.88;;
42726;SDS011;28372;56.832;60.658;2022-08-19T06:07:37;6.80;;;2.90;;
42726;SDS011;28372;56.832;60.658;2022-08-19T06:10:06;4.32;;;3.00;;
42726;SDS011;28372;56.832;60.658;2022-08-19T06:12:37;5.18;;;3.00;;
42726;SDS011;28372;56.832;60.658;2022-08-19T06:15:06;5.82;;;3.17;;
42726;SDS011;28372;56.832;60.658;2022-08-19T06:17:36;5.47;;;2.80;;
42726;SDS011;28372;56.832;60.658;2022-08-19T06:20:05;5.75;;;2.90;;
42726;SDS011;28372;56.832;60.658;2022-08-19T06:22:41;5.25;;;2.88;;
42726;SDS011;28372;56.832;60.658;2022-08-19T06:25:11;7.05;;;3.40;;
42726;SDS011;28372;56.832;60.658;2022-08-19T06:27:41;4.60;;;2.92;;
42726;SDS011;28372;56.832;60.658;2022-08-19T06:30:29;6.88;;;3.05;;
42726;SDS011;28372;56.832;60.658;2022-08-19T06:32:56;6.95;;;3.17;;
42726;SDS011;28372;56.832;60.658;2022-08-19T06:35:25;6.82;;;3.42;;
42726;SDS011;28372;56.832;60.658;2022-08-19T06:37:52;6.38;;;3.13;;
42726;SDS011;28372;56.832;60.658;2022-08-19T06:40:21;6.05;;;3.40;;
42726;SDS011;28372;56.832;60.658;2022-08-19T06:42:48;6.18;;;3.38;;
42726;SDS011;28372;56.832;60.658;2022-08-19T06:45:21;5.88;;;3.13;;
42726;SDS011;28372;56.832;60.658;2022-08-19T06:47:51;6.63;;;3.00;;
42726;SDS011;28372;56.832;60.658;2022-08-19T06:50:23;8.73;;;3.70;;
42726;SDS011;28372;56.832;60.658;2022-08-19T06:52:51;7.60;;;3.65;;
42726;SDS011;28372;56.832;60.658;2022-08-19T06:55:19;5.50;;;3.50;;
42726;SDS011;28372;56.832;60.658;2022-08-19T06:57:46;5.40;;;3.20;;
42726;SDS011;28372;56.832;60.658;2022-08-19T07:00:15;5.55;;;3.20;;
42726;SDS011;28372;56.832;60.658;2022-08-19T07:02:43;6.30;;;3.50;;
42726;SDS011;28372;56.832;60.658;2022-08-19T07:05:21;4.85;;;3.13;;
42726;SDS011;28372;56.832;60.658;2022-08-19T07:07:49;5.43;;;3.55;;
42726;SDS011;28372;56.832;60.658;2022-08-19T07:10:17;8.43;;;3.80;;
42726;SDS011;28372;56.832;60.658;2022-08-19T07:12:45;6.10;;;3.55;;
42726;SDS011;28372;56.832;60.658;2022-08-19T07:15:13;5.88;;;3.47;;
42726;SDS011;28372;56.832;60.658;2022-08-19T07:17:44;6.30;;;3.47;;
42726;SDS011;28372;56.832;60.658;2022-08-19T07:20:15;5.13;;;3.00;;
42726;SDS011;28372;56.832;60.658;2022-08-19T07:22:44;7.10;;;2.97;;
42726;SDS011;28372;56.832;60.658;2022-08-19T07:25:12;6.03;;;3.25;;
42726;SDS011;28372;56.832;60.658;2022-08-19T07:27:40;6.47;;;3.00;;
42726;SDS011;28372;56.832;60.658;2022-08-19T07:30:12;3.92;;;2.60;;
42726;SDS011;28372;56.832;60.658;2022-08-19T07:32:40;8.73;;;2.90;;
42726;SDS011;28372;56.832;60.658;2022-08-19T07:35:09;4.18;;;2.75;;
42726;SDS011;28372;56.832;60.658;2022-08-19T07:37:37;5.97;;;2.92;;
42726;SDS011;28372;56.832;60.658;2022-08-19T07:40:06;5.68;;;2.90;;
42726;SDS011;28372;56.832;60.658;2022-08-19T07:42:34;6.13;;;3.15;;
42726;SDS011;28372;56.832;60.658;2022-08-19T07:45:02;5.32;;;3.53;;
42726;SDS011;28372;56.832;60.658;2022-08-19T07:47:30;5.18;;;2.90;;
42726;SDS011;28372;56.832;60.658;2022-08-19T07:50:17;6.32;;;2.95;;
42726;SDS011;28372;56.832;60.658;2022-08-19T07:52:46;6.28;;;2.95;;
42726;SDS011;28372;56.832;60.658;2022-08-19T07:55:18;5.35;;;2.78;;
42726;SDS011;28372;56.832;60.658;2022-08-19T08:00:35;5.57;;;2.80;;
42726;SDS011;28372;56.832;60.658;2022-08-19T08:03:03;4.90;;;2.67;;
42726;SDS011;28372;56.832;60.658;2022-08-19T08:05:31;3.60;;;2.67;;
42726;SDS011;28372;56.832;60.658;2022-08-19T08:08:17;4.40;;;2.50;;
42726;SDS011;28372;56.832;60.658;2022-08-19T08:11:10;3.83;;;2.30;;
42726;SDS011;28372;56.832;60.658;2022-08-19T08:13:41;4.40;;;2.10;;
42726;SDS011;28372;56.832;60.658;2022-08-19T08:16:09;4.43;;;2.63;;
42726;SDS011;28372;56.832;60.658;2022-08-19T08:18:40;4.18;;;2.30;;
42726;SDS011;28372;56.832;60.658;2022-08-19T08:21:18;6.05;;;2.15;;
42726;SDS011;28372;56.832;60.658;2022-08-19T08:23:46;3.72;;;2.10;;
42726;SDS011;28372;56.832;60.658;2022-08-19T08:26:14;4.10;;;2.63;;
42726;SDS011;28372;56.832;60.658;2022-08-19T08:28:44;4.38;;;2.80;;
42726;SDS011;28372;56.832;60.658;2022-08-19T08:31:15;4.10;;;2.42;;
42726;SDS011;28372;56.832;60.658;2022-08-19T08:33:42;3.35;;;2.42;;
42726;SDS011;28372;56.832;60.658;2022-08-19T08:36:11;3.42;;;2.28;;
42726;SDS011;28372;56.832;60.658;2022-08-19T08:38:41;3.42;;;2.45;;
42726;SDS011;28372;56.832;60.658;2022-08-19T08:41:34;4.82;;;2.70;;
42726;SDS011;28372;56.832;60.658;2022-08-19T08:44:13;6.82;;;2.60;;
42726;SDS011;28372;56.832;60.658;2022-08-19T08:46:51;4.43;;;2.30;;
42726;SDS011;28372;56.832;60.658;2022-08-19T08:52:18;4.35;;;2.70;;
42726;SDS011;28372;56.832;60.658;2022-08-19T09:00:19;3.05;;;2.08;;
42726;SDS011;28372;56.832;60.658;2022-08-19T09:02:55;2.75;;;2.10;;
42726;SDS011;28372;56.832;60.658;2022-08-19T09:05:26;4.95;;;2.50;;
42726;SDS011;28372;56.832;60.658;2022-08-19T09:11:10;4.32;;;2.30;;
42726;SDS011;28372;56.832;60.658;2022-08-19T09:17:18;3.88;;;2.40;;
42726;SDS011;28372;56.832;60.658;2022-08-19T09:19:59;5.38;;;2.70;;
42726;SDS011;28372;56.832;60.658;2022-08-19T09:22:36;5.78;;;2.83;;
42726;SDS011;28372;56.832;60.658;2022-08-19T09:25:04;4.78;;;2.22;;
42726;SDS011;28372;56.832;60.658;2022-08-19T09:27:35;4.88;;;2.20;;
42726;SDS011;28372;56.832;60.658;2022-08-19T09:30:30;4.22;;;2.40;;
42726;SDS011;28372;56.832;60.658;2022-08-19T09:32:59;5.50;;;2.20;;
42726;SDS011;28372;56.832;60.658;2022-08-19T09:35:27;3.38;;;2.20;;
42726;SDS011;28372;56.832;60.658;2022-08-19T09:37:57;3.88;;;2.10;;
42726;SDS011;28372;56.832;60.658;2022-08-19T09:40:26;3.78;;;1.90;;
42726;SDS011;28372;56.832;60.658;2022-08-19T09:42:56;5.03;;;2.03;;
42726;SDS011;28372;56.832;60.658;2022-08-19T09:45:39;5.43;;;2.13;;
42726;SDS011;28372;56.832;60.658;2022-08-19T09:48:06;4.80;;;1.88;;
42726;SDS011;28372;56.832;60.658;2022-08-19T09:50:37;3.13;;;2.00;;
42726;SDS011;28372;56.832;60.658;2022-08-19T09:53:18;2.97;;;1.95;;
42726;SDS011;28372;56.832;60.658;2022-08-19T09:55:46;4.85;;;1.85;;
42726;SDS011;28372;56.832;60.658;2022-08-19T09:58:13;3.53;;;2.05;;
42726;SDS011;28372;56.832;60.658;2022-08-19T10:00:41;5.70;;;2.03;;
42726;SDS011;28372;56.832;60.658;2022-08-19T10:03:08;3.78;;;1.90;;
42726;SDS011;28372;56.832;60.658;2022-08-19T10:05:36;3.33;;;1.60;;
42726;SDS011;28372;56.832;60.658;2022-08-19T10:08:24;3.20;;;1.60;;
42726;SDS011;28372;56.832;60.658;2022-08-19T10:10:53;2.53;;;1.48;;
42726;SDS011;28372;56.832;60.658;2022-08-19T10:13:26;2.50;;;1.40;;
42726;SDS011;28372;56.832;60.658;2022-08-19T10:15:56;4.15;;;1.42;;
42726;SDS011;28372;56.832;60.658;2022-08-19T10:18:30;4.85;;;1.30;;
42726;SDS011;28372;56.832;60.658;2022-08-19T10:21:08;2.97;;;1.40;;
42726;SDS011;28372;56.832;60.658;2022-08-19T10:23:37;3.75;;;1.45;;
42726;SDS011;28372;56.832;60.658;2022-08-19T10:26:07;3.38;;;1.30;;
42726;SDS011;28372;56.832;60.658;2022-08-19T10:28:35;3.17;;;1.10;;
42726;SDS011;28372;56.832;60.658;2022-08-19T10:31:12;2.38;;;1.20;;
42726;SDS011;28372;56.832;60.658;2022-08-19T10:33:45;3.60;;;1.50;;
42726;SDS011;28372;56.832;60.658;2022-08-19T10:36:21;2.45;;;1.20;;
42726;SDS011;28372;56.832;60.658;2022-08-19T10:38:50;3.35;;;1.50;;
42726;SDS011;28372;56.832;60.658;2022-08-19T10:43:52;4.97;;;1.48;;
42726;SDS011;28372;56.832;60.658;2022-08-19T10:46:22;3.55;;;1.40;;
42726;SDS011;28372;56.832;60.658;2022-08-19T10:48:51;4.63;;;1.30;;
42726;SDS011;28372;56.832;60.658;2022-08-19T10:51:19;3.10;;;1.55;;
42726;SDS011;28372;56.832;60.658;2022-08-19T10:54:14;3.33;;;1.58;;
42726;SDS011;28372;56.832;60.658;2022-08-19T10:56:42;2.55;;;1.33;;
42726;SDS011;28372;56.832;60.658;2022-08-19T10:59:21;3.95;;;1.20;;
42726;SDS011;28372;56.832;60.658;2022-08-19T11:01:53;3.30;;;1.35;;
42726;SDS011;28372;56.832;60.658;2022-08-19T11:04:25;7.22;;;1.50;;
42726;SDS011;28372;56.832;60.658;2022-08-19T11:06:55;2.92;;;1.30;;
42726;SDS011;28372;56.832;60.658;2022-08-19T11:09:24;5.00;;;1.20;;
42726;SDS011;28372;56.832;60.658;2022-08-19T11:11:59;2.35;;;1.20;;
42726;SDS011;28372;56.832;60.658;2022-08-19T11:14:30;3.22;;;1.15;;
42726;SDS011;28372;56.832;60.658;2022-08-19T11:17:00;1.83;;;0.90;;
42726;SDS011;28372;56.832;60.658;2022-08-19T11:19:29;1.90;;;0.95;;
42726;SDS011;28372;56.832;60.658;2022-08-19T11:21:56;2.65;;;1.10;;
42726;SDS011;28372;56.832;60.658;2022-08-19T11:24:30;2.63;;;1.02;;
42726;SDS011;28372;56.832;60.658;2022-08-19T11:27:01;3.45;;;0.90;;
42726;SDS011;28372;56.832;60.658;2022-08-19T11:29:34;3.60;;;1.20;;
42726;SDS011;28372;56.832;60.658;2022-08-19T11:32:07;2.13;;;1.00;;
42726;SDS011;28372;56.832;60.658;2022-08-19T11:34:37;2.88;;;1.10;;
42726;SDS011;28372;56.832;60.658;2022-08-19T11:37:04;4.15;;;1.10;;
42726;SDS011;28372;56.832;60.658;2022-08-19T11:39:33;2.83;;;0.90;;
42726;SDS011;28372;56.832;60.658;2022-08-19T11:42:03;2.38;;;0.90;;
42726;SDS011;28372;56.832;60.658;2022-08-19T11:44:52;2.33;;;1.10;;
42726;SDS011;28372;56.832;60.658;2022-08-19T11:47:20;3.63;;;0.90;;
42726;SDS011;28372;56.832;60.658;2022-08-19T11:49:47;3.15;;;1.20;;
42726;SDS011;28372;56.832;60.658;2022-08-19T11:52:15;2.75;;;1.00;;
42726;SDS011;28372;56.832;60.658;2022-08-19T11:54:42;2.85;;;1.02;;
42726;SDS011;28372;56.832;60.658;2022-08-19T11:57:10;1.88;;;0.82;;
42726;SDS011;28372;56.832;60.658;2022-08-19T11:59:37;2.97;;;1.10;;
42726;SDS011;28372;56.832;60.658;2022-08-19T12:02:05;3.30;;;1.35;;
42726;SDS011;28372;56.832;60.658;2022-08-19T12:04:32;3.38;;;1.20;;
42726;SDS011;28372;56.832;60.658;2022-08-19T12:07:00;2.35;;;1.10;;
42726;SDS011;28372;56.832;60.658;2022-08-19T12:09:28;2.83;;;1.30;;
42726;SDS011;28372;56.832;60.658;2022-08-19T12:11:56;2.90;;;1.20;;
42726;SDS011;28372;56.832;60.658;2022-08-19T12:14:24;2.55;;;1.10;;
42726;SDS011;28372;56.832;60.658;2022-08-19T12:16:51;2.95;;;1.20;;
42726;SDS011;28372;56.832;60.658;2022-08-19T12:19:20;1.70;;;1.05;;
42726;SDS011;28372;56.832;60.658;2022-08-19T12:21:48;2.47;;;0.95;;
42726;SDS011;28372;56.832;60.658;2022-08-19T12:24:17;2.92;;;1.00;;
42726;SDS011;28372;56.832;60.658;2022-08-19T12:26:50;2.05;;;1.00;;
42726;SDS011;28372;56.832;60.658;2022-08-19T12:29:20;2.35;;;0.93;;
42726;SDS011;28372;56.832;60.658;2022-08-19T12:31:50;2.40;;;1.10;;
42726;SDS011;28372;56.832;60.658;2022-08-19T12:34:18;3.05;;;1.08;;
42726;SDS011;28372;56.832;60.658;2022-08-19T12:36:46;2.05;;;1.08;;
42726;SDS011;28372;56.832;60.658;2022-08-19T12:39:16;2.22;;;1.00;;
42726;SDS011;28372;56.832;60.658;2022-08-19T12:41:44;2.17;;;1.10;;
42726;SDS011;28372;56.832;60.658;2022-08-19T12:44:21;1.42;;;0.85;;
42726;SDS011;28372;56.832;60.658;2022-08-19T12:46:56;3.42;;;1.10;;
42726;SDS011;28372;56.832;60.658;2022-08-19T12:49:24;3.30;;;1.30;;
42726;SDS011;28372;56.832;60.658;2022-08-19T12:52:11;3.63;;;1.05;;
42726;SDS011;28372;56.832;60.658;2022-08-19T12:54:49;2.58;;;1.00;;
42726;SDS011;28372;56.832;60.658;2022-08-19T12:57:21;2.72;;;1.10;;
42726;SDS011;28372;56.832;60.658;2022-08-19T13:00:04;2.40;;;1.20;;
42726;SDS011;28372;56.832;60.658;2022-08-19T13:02:45;1.70;;;0.70;;
42726;SDS011;28372;56.832;60.658;2022-08-19T13:05:17;0.77;;;0.47;;
42726;SDS011;28372;56.832;60.658;2022-08-19T13:07:57;2.95;;;0.90;;
42726;SDS011;28372;56.832;60.658;2022-08-19T13:10:29;3.10;;;1.00;;
42726;SDS011;28372;56.832;60.658;2022-08-19T13:13:03;4.55;;;0.70;;
42726;SDS011;28372;56.832;60.658;2022-08-19T13:15:37;2.33;;;1.05;;
42726;SDS011;28372;56.832;60.658;2022-08-19T13:18:12;2.90;;;1.00;;
42726;SDS011;28372;56.832;60.658;2022-08-19T13:20:41;3.00;;;1.05;;
42726;SDS011;28372;56.832;60.658;2022-08-19T13:23:18;3.33;;;1.00;;
42726;SDS011;28372;56.832;60.658;2022-08-19T13:25:54;2.78;;;1.30;;
42726;SDS011;28372;56.832;60.658;2022-08-19T13:28:23;3.10;;;0.80;;
42726;SDS011;28372;56.832;60.658;2022-08-19T13:30:55;2.78;;;0.98;;
42726;SDS011;28372;56.832;60.658;2022-08-19T13:33:40;2.72;;;1.20;;
42726;SDS011;28372;56.832;60.658;2022-08-19T13:36:08;3.78;;;1.27;;
42726;SDS011;28372;56.832;60.658;2022-08-19T13:38:36;2.78;;;0.98;;
42726;SDS011;28372;56.832;60.658;2022-08-19T13:41:05;3.17;;;1.00;;
42726;SDS011;28372;56.832;60.658;2022-08-19T13:43:37;1.92;;;0.90;;
42726;SDS011;28372;56.832;60.658;2022-08-19T13:46:08;3.90;;;1.20;;
42726;SDS011;28372;56.832;60.658;2022-08-19T13:48:40;1.92;;;0.80;;
42726;SDS011;28372;56.832;60.658;2022-08-19T13:51:08;3.30;;;1.10;;
42726;SDS011;28372;56.832;60.658;2022-08-19T13:53:37;5.78;;;2.00;;
42726;SDS011;28372;56.832;60.658;2022-08-19T13:56:06;3.03;;;1.50;;
42726;SDS011;28372;56.832;60.658;2022-08-19T13:58:35;3.03;;;1.50;;
42726;SDS011;28372;56.832;60.658;2022-08-19T14:01:03;4.15;;;1.40;;
42726;SDS011;28372;56.832;60.658;2022-08-19T14:03:33;3.20;;;1.73;;
42726;SDS011;28372;56.832;60.658;2022-08-19T14:06:01;4.95;;;1.50;;
42726;SDS011;28372;56.832;60.658;2022-08-19T14:08:29;5.60;;;1.90;;
42726;SDS011;28372;56.832;60.658;2022-08-19T14:10:58;6.65;;;2.10;;
42726;SDS011;28372;56.832;60.658;2022-08-19T14:13:32;6.38;;;2.38;;
42726;SDS011;28372;56.832;60.658;2022-08-19T14:16:00;5.78;;;1.90;;
42726;SDS011;28372;56.832;60.658;2022-08-19T14:18:28;4.65;;;2.08;;
42726;SDS011;28372;56.832;60.658;2022-08-19T14:20:56;11.10;;;3.75;;
42726;SDS011;28372;56.832;60.658;2022-08-19T14:23:24;6.85;;;2.20;;
42726;SDS011;28372;56.832;60.658;2022-08-19T14:25:51;6.03;;;2.60;;
42726;SDS011;28372;56.832;60.658;2022-08-19T14:28:19;6.60;;;2.30;;
42726;SDS011;28372;56.832;60.658;2022-08-19T14:30:52;6.55;;;1.75;;
42726;SDS011;28372;56.832;60.658;2022-08-19T14:33:22;4.93;;;1.90;;
42726;SDS011;28372;56.832;60.658;2022-08-19T14:35:54;7.85;;;2.58;;
42726;SDS011;28372;56.832;60.658;2022-08-19T14:38:25;16.95;;;6.03;;
42726;SDS011;28372;56.832;60.658;2022-08-19T14:41:07;8.75;;;3.35;;
42726;SDS011;28372;56.832;60.658;2022-08-19T14:43:40;11.93;;;3.38;;
42726;SDS011;28372;56.832;60.658;2022-08-19T14:46:09;8.43;;;2.80;;
42726;SDS011;28372;56.832;60.658;2022-08-19T14:48:42;10.80;;;3.72;;
42726;SDS011;28372;56.832;60.658;2022-08-19T14:51:11;10.93;;;4.00;;
42726;SDS011;28372;56.832;60.658;2022-08-19T14:53:41;4.70;;;1.90;;
42726;SDS011;28372;56.832;60.658;2022-08-19T14:56:13;6.03;;;1.83;;
42726;SDS011;28372;56.832;60.658;2022-08-19T14:58:44;11.50;;;4.15;;
42726;SDS011;28372;56.832;60.658;2022-08-19T15:01:12;3.63;;;1.70;;
42726;SDS011;28372;56.832;60.658;2022-08-19T15:03:41;8.57;;;2.00;;
42726;SDS011;28372;56.832;60.658;2022-08-19T15:06:08;5.20;;;2.40;;
42726;SDS011;28372;56.832;60.658;2022-08-19T15:08:39;4.28;;;2.03;;
42726;SDS011;28372;56.832;60.658;2022-08-19T15:11:12;4.53;;;1.90;;
42726;SDS011;28372;56.832;60.658;2022-08-19T15:13:42;5.38;;;2.72;;
42726;SDS011;28372;56.832;60.658;2022-08-19T15:16:10;5.63;;;2.40;;
42726;SDS011;28372;56.832;60.658;2022-08-19T15:18:44;7.15;;;2.80;;
42726;SDS011;28372;56.832;60.658;2022-08-19T15:21:14;8.65;;;3.92;;
42726;SDS011;28372;56.832;60.658;2022-08-19T15:23:53;9.13;;;3.40;;